Time;durP1;ratioP1;P1;durP2;ratioP2;P2;SDS_P1;SDS_P2;PMS_P1;PMS_P2;Temp;Humidity;BMP_temperature;BMP_pressure;BME280_temperature;BME280_humidity;BME280_pressure;Samples;Min_cycle;Max_cycle;Signal;HPM_P1;HPM_P2
2023/10/30 00:00:15;;;;;;;;;;;10.20;99.90;;;;;;5009337;28;19929;-70
2023/10/30 00:02:42;;;;;;;;;;;10.20;99.90;;;;;;5009616;28;19933;-71
2023/10/30 00:05:09;;;;;;;;;;;10.20;99.90;;;;;;5009281;28;20605;-70
2023/10/30 00:07:35;;;;;;;;;;;10.10;99.90;;;;;;5009227;28;20461;-70
2023/10/30 00:10:02;;;;;;;;;;;10.00;99.90;;;;;;5009367;28;19934;-70
2023/10/30 00:12:28;;;;;;;;;;;10.00;99.90;;;;;;5009443;28;19934;-71
2023/10/30 00:14:55;;;;;;;;;;;9.90;99.90;;;;;;5009425;28;19925;-70
2023/10/30 00:17:23;;;;;;;;;;;9.90;99.90;;;;;;5008501;28;19925;-70
2023/10/30 00:19:50;;;;;;;;;;;9.90;99.90;;;;;;5009525;28;19933;-70
2023/10/30 00:22:16;;;;;;;;;;;9.90;99.90;;;;;;5008833;28;20406;-70
2023/10/30 00:24:43;;;;;;;;;;;9.90;99.90;;;;;;5009511;28;20375;-70
2023/10/30 00:27:09;;;;;;;;;;;9.90;99.90;;;;;;5008721;28;19937;-71
2023/10/30 00:29:39;;;;;;;;;;;9.80;99.90;;;;;;5009432;28;19929;-71
2023/10/30 00:32:06;;;;;;;;;;;9.80;99.90;;;;;;5008566;28;19964;-70
2023/10/30 00:34:34;;;;;;;;;;;9.80;99.90;;;;;;5009621;28;19952;-70
2023/10/30 00:37:00;;;;;;;;;;;9.80;99.90;;;;;;5008278;28;19988;-70
2023/10/30 00:39:30;;;;;;;;;;;9.80;99.90;;;;;;5009113;28;19948;-70
2023/10/30 00:41:58;;;;;;;;;;;9.80;99.90;;;;;;5008704;28;19937;-71
2023/10/30 00:44:24;;;;;;;;;;;9.70;99.90;;;;;;5009279;28;19995;-70
2023/10/30 00:46:52;;;;;;;;;;;9.70;99.90;;;;;;5007849;28;20585;-70
2023/10/30 00:49:18;;;;;;;;;;;9.70;99.90;;;;;;5008992;28;19934;-70
2023/10/30 00:51:46;;;;;;;;;;;9.70;99.90;;;;;;5008439;28;19987;-70
2023/10/30 00:54:13;;;;;;;;;;;9.70;99.90;;;;;;5009101;28;19995;-70
2023/10/30 00:56:39;;;;;;;;;;;9.70;99.90;;;;;;5007693;28;19925;-71
2023/10/30 00:59:06;;;;;;;;;;;9.70;99.90;;;;;;5008373;28;19926;-70
2023/10/30 01:01:32;;;;;;;;;;;9.70;99.90;;;;;;5008086;28;19937;-70
2023/10/30 01:03:59;;;;;;;;;;;9.70;99.90;;;;;;5008695;28;19929;-70
2023/10/30 01:06:25;;;;;;;;;;;9.80;99.90;;;;;;5008698;28;19972;-71
2023/10/30 01:08:53;;;;;;;;;;;9.80;99.90;;;;;;5008698;28;19987;-71
2023/10/30 01:11:19;;;;;;;;;;;9.90;99.90;;;;;;5008353;28;19980;-70
2023/10/30 01:13:46;;;;;;;;;;;10.00;99.90;;;;;;5008252;28;19933;-70
2023/10/30 01:16:12;;;;;;;;;;;10.00;99.90;;;;;;5007688;28;19952;-70
2023/10/30 01:18:39;;;;;;;;;;;10.10;99.90;;;;;;5008331;28;19933;-70
2023/10/30 01:21:08;;;;;;;;;;;10.10;99.90;;;;;;5008169;28;20023;-70
2023/10/30 01:23:35;;;;;;;;;;;10.20;99.90;;;;;;5008607;28;19979;-71
2023/10/30 01:26:03;;;;;;;;;;;10.20;99.90;;;;;;5008107;28;20404;-71
2023/10/30 01:28:29;;;;;;;;;;;10.20;99.90;;;;;;5007692;28;19934;-70
2023/10/30 01:30:56;;;;;;;;;;;10.20;99.90;;;;;;5007778;28;19925;-71
2023/10/30 01:33:23;;;;;;;;;;;10.20;99.90;;;;;;5008492;28;19934;-70
2023/10/30 01:35:49;;;;;;;;;;;10.20;99.90;;;;;;5007835;28;19934;-70
2023/10/30 01:38:16;;;;;;;;;;;10.30;99.90;;;;;;5008127;28;20358;-71
2023/10/30 01:40:46;;;;;;;;;;;10.40;99.90;;;;;;5007618;28;19933;-71
2023/10/30 01:43:14;;;;;;;;;;;10.40;99.90;;;;;;5008357;28;19987;-71
2023/10/30 01:45:41;;;;;;;;;;;10.50;99.90;;;;;;5007579;28;20416;-70
2023/10/30 01:48:07;;;;;;;;;;;10.50;99.90;;;;;;5007865;28;19933;-71
2023/10/30 01:50:34;;;;;;;;;;;10.50;99.90;;;;;;5007642;28;19973;-70
2023/10/30 01:53:01;;;;;;;;;;;10.50;99.90;;;;;;5007931;28;20399;-70
2023/10/30 01:55:28;;;;;;;;;;;10.60;99.90;;;;;;5007153;28;20008;-71
2023/10/30 01:57:55;;;;;;;;;;;10.60;99.90;;;;;;5007638;28;19926;-70
2023/10/30 02:00:23;;;;;;;;;;;10.60;99.90;;;;;;5007241;28;20072;-70
2023/10/30 02:02:51;;;;;;;;;;;10.70;99.90;;;;;;5007139;28;19925;-71
2023/10/30 02:05:18;;;;;;;;;;;10.70;99.90;;;;;;5008073;28;19933;-70
2023/10/30 02:07:45;;;;;;;;;;;10.70;99.90;;;;;;5009952;28;19933;-70
2023/10/30 02:10:12;;;;;;;;;;;10.70;99.90;;;;;;5011465;28;20399;-70
2023/10/30 02:12:40;;;;;;;;;;;10.70;99.90;;;;;;5011922;28;19932;-71
2023/10/30 02:15:08;;;;;;;;;;;10.70;99.90;;;;;;5011767;28;19934;-71
2023/10/30 02:17:36;;;;;;;;;;;10.70;99.90;;;;;;5011448;28;19925;-70
2023/10/30 02:20:03;;;;;;;;;;;10.80;99.90;;;;;;5011708;28;19926;-71
2023/10/30 02:22:29;;;;;;;;;;;10.80;99.90;;;;;;5010949;28;19933;-70
2023/10/30 02:24:56;;;;;;;;;;;10.80;99.90;;;;;;5011422;28;19941;-71
2023/10/30 02:27:24;;;;;;;;;;;10.80;99.90;;;;;;5010641;28;19933;-71
2023/10/30 02:29:50;;;;;;;;;;;10.90;99.90;;;;;;5011931;28;19933;-70
2023/10/30 02:32:17;;;;;;;;;;;10.90;99.90;;;;;;5010859;28;19933;-71
2023/10/30 02:34:43;;;;;;;;;;;10.90;99.90;;;;;;5011539;28;19934;-71
2023/10/30 02:37:10;;;;;;;;;;;10.90;99.90;;;;;;5010353;28;20277;-70
2023/10/30 02:39:36;;;;;;;;;;;10.90;99.90;;;;;;5011729;28;19933;-71
2023/10/30 02:42:04;;;;;;;;;;;10.90;99.90;;;;;;5010909;28;19930;-71
2023/10/30 02:44:32;;;;;;;;;;;10.90;99.90;;;;;;5011274;28;19929;-71
2023/10/30 02:46:59;;;;;;;;;;;10.90;99.90;;;;;;5010145;28;20040;-70
2023/10/30 02:49:25;;;;;;;;;;;11.00;99.90;;;;;;5010909;28;20284;-70
2023/10/30 02:51:52;;;;;;;;;;;10.90;99.90;;;;;;5010517;28;20292;-70
2023/10/30 02:54:18;;;;;;;;;;;11.00;99.90;;;;;;5011161;28;19933;-71
2023/10/30 02:56:45;;;;;;;;;;;10.90;99.90;;;;;;5010220;28;20355;-70
2023/10/30 02:59:12;;;;;;;;;;;10.90;99.90;;;;;;5010948;28;19934;-70
2023/10/30 03:01:40;;;;;;;;;;;10.90;99.90;;;;;;5010047;28;19925;-70
2023/10/30 03:04:06;;;;;;;;;;;10.90;99.90;;;;;;5011236;28;20469;-70
2023/10/30 03:06:33;;;;;;;;;;;10.90;99.90;;;;;;5009903;28;19991;-70
2023/10/30 03:08:59;;;;;;;;;;;11.00;99.90;;;;;;5010782;28;20402;-70
2023/10/30 03:11:26;;;;;;;;;;;10.90;99.90;;;;;;5010457;28;19933;-71
2023/10/30 03:13:52;;;;;;;;;;;10.90;99.90;;;;;;5011088;28;19925;-70
2023/10/30 03:16:19;;;;;;;;;;;11.00;99.90;;;;;;5010122;28;19934;-70
2023/10/30 03:18:47;;;;;;;;;;;11.00;99.90;;;;;;5009385;28;19933;-70
2023/10/30 03:21:13;;;;;;;;;;;11.00;99.90;;;;;;5010329;28;19934;-70
2023/10/30 03:23:40;;;;;;;;;;;11.00;99.90;;;;;;5010993;28;20000;-70
2023/10/30 03:26:06;;;;;;;;;;;11.00;99.90;;;;;;5009876;28;20354;-70
2023/10/30 03:28:33;;;;;;;;;;;11.00;99.90;;;;;;5010482;28;19983;-70
2023/10/30 03:31:04;;;;;;;;;;;11.00;99.90;;;;;;5009372;28;20612;-70
2023/10/30 03:33:31;;;;;;;;;;;11.00;99.90;;;;;;5010233;28;19937;-70
2023/10/30 03:35:59;;;;;;;;;;;11.00;99.90;;;;;;5010304;28;19926;-71
2023/10/30 03:38:25;;;;;;;;;;;11.00;99.90;;;;;;5009805;28;19933;-71
2023/10/30 03:40:52;;;;;;;;;;;11.00;99.90;;;;;;5009720;28;20391;-70
2023/10/30 03:43:18;;;;;;;;;;;11.00;99.90;;;;;;5010636;28;19988;-70
2023/10/30 03:45:44;;;;;;;;;;;11.00;99.90;;;;;;5009341;28;19933;-70
2023/10/30 03:48:11;;;;;;;;;;;11.00;99.90;;;;;;5009631;28;19941;-70
2023/10/30 03:50:37;;;;;;;;;;;11.00;99.90;;;;;;5009790;28;19933;-71
2023/10/30 03:53:06;;;;;;;;;;;11.00;99.90;;;;;;5010218;28;19980;-70
2023/10/30 03:55:33;;;;;;;;;;;11.00;99.90;;;;;;5009585;28;20405;-70
2023/10/30 03:57:59;;;;;;;;;;;11.00;99.90;;;;;;5009446;28;19933;-71
2023/10/30 04:00:26;;;;;;;;;;;11.00;99.90;;;;;;5009281;28;19940;-70
2023/10/30 04:02:53;;;;;;;;;;;11.00;99.90;;;;;;5009967;28;19929;-70
2023/10/30 04:05:19;;;;;;;;;;;11.00;99.90;;;;;;5009410;28;19926;-70
2023/10/30 04:07:46;;;;;;;;;;;11.00;99.90;;;;;;5009736;28;20007;-70
2023/10/30 04:10:14;;;;;;;;;;;11.00;99.90;;;;;;5009447;28;20694;-71
2023/10/30 04:12:40;;;;;;;;;;;11.00;99.90;;;;;;5009698;28;19980;-70
2023/10/30 04:15:07;;;;;;;;;;;11.00;99.90;;;;;;5009175;28;20453;-70
2023/10/30 04:17:34;;;;;;;;;;;11.00;99.90;;;;;;5009295;28;21264;-70
2023/10/30 04:20:00;;;;;;;;;;;11.00;99.90;;;;;;5009472;28;19925;-70
2023/10/30 04:22:27;;;;;;;;;;;11.00;99.90;;;;;;5009166;28;19933;-70
2023/10/30 04:24:53;;;;;;;;;;;11.00;99.90;;;;;;5009522;28;19925;-71
2023/10/30 04:27:22;;;;;;;;;;;11.00;99.90;;;;;;5008239;28;19933;-70
2023/10/30 04:29:48;;;;;;;;;;;11.00;99.90;;;;;;5008537;28;19933;-70
2023/10/30 04:32:15;;;;;;;;;;;11.00;99.90;;;;;;5008430;28;19971;-70
2023/10/30 04:34:41;;;;;;;;;;;11.00;99.90;;;;;;5009373;28;19933;-70
2023/10/30 04:37:08;;;;;;;;;;;11.00;99.90;;;;;;5008487;28;19941;-70
2023/10/30 04:39:35;;;;;;;;;;;11.00;99.90;;;;;;5009258;28;19925;-71
2023/10/30 04:42:01;;;;;;;;;;;10.90;99.90;;;;;;5008801;28;19931;-70
2023/10/30 04:44:29;;;;;;;;;;;10.90;99.90;;;;;;5009221;28;19988;-70
2023/10/30 04:46:56;;;;;;;;;;;10.90;99.90;;;;;;5007976;28;19933;-70
2023/10/30 04:49:22;;;;;;;;;;;10.90;99.90;;;;;;5008924;28;19933;-70
2023/10/30 04:51:49;;;;;;;;;;;10.90;99.90;;;;;;5008575;28;19975;-70
2023/10/30 04:54:15;;;;;;;;;;;10.90;99.90;;;;;;5009244;28;19929;-70
2023/10/30 04:56:42;;;;;;;;;;;10.90;99.90;;;;;;5008170;28;19933;-70
2023/10/30 04:59:09;;;;;;;;;;;10.80;99.90;;;;;;5008905;28;19960;-70
2023/10/30 05:01:36;;;;;;;;;;;10.90;99.90;;;;;;5007099;28;19932;-71
2023/10/30 05:04:03;;;;;;;;;;;10.90;99.90;;;;;;5008768;28;20362;-70
2023/10/30 05:06:30;;;;;;;;;;;10.90;99.90;;;;;;5008130;28;19932;-70
2023/10/30 05:08:56;;;;;;;;;;;10.90;99.90;;;;;;5008180;28;19925;-70
2023/10/30 05:11:23;;;;;;;;;;;10.90;99.90;;;;;;5007728;28;19934;-70
2023/10/30 05:13:49;;;;;;;;;;;11.00;99.90;;;;;;5008736;28;19925;-70
2023/10/30 05:16:16;;;;;;;;;;;11.00;99.90;;;;;;5007753;28;19937;-70
2023/10/30 05:18:44;;;;;;;;;;;11.00;99.90;;;;;;5008291;28;20285;-71
2023/10/30 05:21:10;;;;;;;;;;;11.00;99.90;;;;;;5008069;28;19933;-70
2023/10/30 05:23:37;;;;;;;;;;;11.00;99.90;;;;;;5007609;28;19940;-70
2023/10/30 05:26:03;;;;;;;;;;;11.10;99.90;;;;;;5004383;28;19926;-71
2023/10/30 05:28:30;;;;;;;;;;;11.00;99.90;;;;;;5005275;28;19933;-70
2023/10/30 05:30:57;;;;;;;;;;;11.00;99.90;;;;;;5007404;28;19933;-70
2023/10/30 05:33:23;;;;;;;;;;;11.10;99.90;;;;;;5008854;28;19960;-70
2023/10/30 05:35:54;;;;;;;;;;;11.10;99.90;;;;;;5008153;28;19972;-71
2023/10/30 05:38:22;;;;;;;;;;;11.00;99.90;;;;;;5007936;28;19972;-70
2023/10/30 05:40:49;;;;;;;;;;;11.10;99.90;;;;;;5008431;28;19926;-70
2023/10/30 05:43:15;;;;;;;;;;;11.00;99.90;;;;;;5008619;28;20012;-70
2023/10/30 05:45:42;;;;;;;;;;;11.00;99.90;;;;;;5008009;28;20364;-70
2023/10/30 05:48:08;;;;;;;;;;;11.00;99.90;;;;;;5008207;28;19952;-70
2023/10/30 05:50:35;;;;;;;;;;;11.00;99.90;;;;;;5007442;28;19957;-70
2023/10/30 05:53:02;;;;;;;;;;;11.00;99.90;;;;;;5008299;28;19960;-70
2023/10/30 05:55:29;;;;;;;;;;;11.00;99.90;;;;;;5008012;28;20550;-70
2023/10/30 05:57:56;;;;;;;;;;;11.00;99.90;;;;;;5008375;28;19937;-71
2023/10/30 06:00:23;;;;;;;;;;;11.00;99.90;;;;;;5007426;28;19941;-70
2023/10/30 06:02:51;;;;;;;;;;;11.00;99.90;;;;;;5008284;28;19940;-70
2023/10/30 06:05:18;;;;;;;;;;;11.00;99.90;;;;;;5007599;28;19937;-70
2023/10/30 06:07:45;;;;;;;;;;;11.00;99.90;;;;;;5007560;28;19937;-70
2023/10/30 06:10:13;;;;;;;;;;;11.00;99.90;;;;;;5008118;28;19934;-70
2023/10/30 06:12:39;;;;;;;;;;;11.00;99.90;;;;;;5008064;28;19956;-70
2023/10/30 06:15:07;;;;;;;;;;;11.00;99.90;;;;;;5008287;28;19934;-70
2023/10/30 06:17:33;;;;;;;;;;;10.90;99.90;;;;;;5007515;28;19933;-70
2023/10/30 06:20:00;;;;;;;;;;;10.90;99.90;;;;;;5007828;28;19933;-70
2023/10/30 06:22:26;;;;;;;;;;;10.90;99.90;;;;;;5007978;28;19925;-70
2023/10/30 06:24:53;;;;;;;;;;;10.90;99.90;;;;;;5008201;28;19933;-70
2023/10/30 06:27:22;;;;;;;;;;;10.90;99.90;;;;;;5007608;28;19975;-70
2023/10/30 06:29:48;;;;;;;;;;;10.90;99.90;;;;;;5007739;28;19972;-70
2023/10/30 06:32:15;;;;;;;;;;;10.90;99.90;;;;;;5007675;28;20048;-71
2023/10/30 06:34:42;;;;;;;;;;;10.90;99.90;;;;;;5007845;28;20023;-70
2023/10/30 06:37:09;;;;;;;;;;;10.90;99.90;;;;;;5007356;28;19979;-71
2023/10/30 06:39:37;;;;;;;;;;;10.90;99.90;;;;;;5008243;28;19980;-70
2023/10/30 06:42:03;;;;;;;;;;;10.90;99.90;;;;;;5007496;28;19934;-70
2023/10/30 06:44:31;;;;;;;;;;;10.90;99.90;;;;;;5008039;28;19929;-70
2023/10/30 06:46:59;;;;;;;;;;;10.80;99.90;;;;;;5006902;28;19933;-70
2023/10/30 06:49:25;;;;;;;;;;;10.80;99.90;;;;;;5007777;28;19934;-70
2023/10/30 06:51:52;;;;;;;;;;;10.80;99.90;;;;;;5007532;28;19937;-71
2023/10/30 06:54:19;;;;;;;;;;;10.80;99.90;;;;;;5009904;28;19980;-71
2023/10/30 06:56:45;;;;;;;;;;;10.80;99.90;;;;;;5010728;28;19979;-71
2023/10/30 06:59:14;;;;;;;;;;;10.80;99.90;;;;;;5011414;28;19981;-71
2023/10/30 07:01:42;;;;;;;;;;;10.80;99.90;;;;;;5009208;28;19925;-70
2023/10/30 07:04:09;;;;;;;;;;;10.80;99.90;;;;;;5011452;28;19926;-70
2023/10/30 07:06:35;;;;;;;;;;;10.80;99.90;;;;;;5010886;28;20112;-70
2023/10/30 07:09:02;;;;;;;;;;;10.80;99.90;;;;;;5011135;28;19937;-70
2023/10/30 07:11:29;;;;;;;;;;;10.80;99.90;;;;;;5010861;28;19972;-70
2023/10/30 07:13:56;;;;;;;;;;;10.80;99.90;;;;;;5010906;28;20442;-70
2023/10/30 07:16:23;;;;;;;;;;;10.80;99.90;;;;;;5010267;28;20447;-70
2023/10/30 07:18:50;;;;;;;;;;;10.70;99.90;;;;;;5011196;28;19933;-71
2023/10/30 07:21:17;;;;;;;;;;;10.80;99.90;;;;;;5010587;28;19933;-70
2023/10/30 07:23:43;;;;;;;;;;;10.80;99.90;;;;;;5011277;28;20011;-70
2023/10/30 07:26:10;;;;;;;;;;;10.80;99.90;;;;;;5010291;28;19925;-70
2023/10/30 07:28:37;;;;;;;;;;;10.80;99.90;;;;;;5010809;28;20012;-70
2023/10/30 07:31:04;;;;;;;;;;;10.80;99.90;;;;;;5009893;28;19985;-70
2023/10/30 07:33:30;;;;;;;;;;;10.80;99.90;;;;;;5011036;28;19933;-70
2023/10/30 07:36:00;;;;;;;;;;;10.80;99.90;;;;;;5010300;28;19925;-70
2023/10/30 07:38:27;;;;;;;;;;;10.80;99.90;;;;;;5010689;28;19934;-70
2023/10/30 07:40:53;;;;;;;;;;;10.80;99.90;;;;;;5009854;28;19952;-70
2023/10/30 07:43:21;;;;;;;;;;;10.80;99.90;;;;;;5010415;28;19926;-71
2023/10/30 07:45:47;;;;;;;;;;;10.80;99.90;;;;;;5010205;28;19965;-70
2023/10/30 07:48:14;;;;;;;;;;;10.80;99.90;;;;;;5010348;28;20517;-70
2023/10/30 07:50:40;;;;;;;;;;;10.80;99.90;;;;;;5009770;28;20672;-70
2023/10/30 07:53:09;;;;;;;;;;;10.80;99.90;;;;;;5010884;28;19987;-70
2023/10/30 07:55:36;;;;;;;;;;;10.80;99.90;;;;;;5009785;28;19934;-70
2023/10/30 07:58:04;;;;;;;;;;;10.80;99.90;;;;;;5009918;28;19940;-70
2023/10/30 08:00:30;;;;;;;;;;;10.80;99.90;;;;;;5009376;28;20000;-71
2023/10/30 08:02:57;;;;;;;;;;;10.80;99.90;;;;;;5009490;28;19933;-70
2023/10/30 08:05:23;;;;;;;;;;;10.80;99.90;;;;;;5009383;28;20308;-70
2023/10/30 08:07:50;;;;;;;;;;;10.90;99.90;;;;;;5010055;28;19925;-70
2023/10/30 08:10:18;;;;;;;;;;;10.90;99.90;;;;;;5009749;28;20430;-70
2023/10/30 08:12:44;;;;;;;;;;;10.90;99.90;;;;;;5009874;28;19996;-70
2023/10/30 08:15:11;;;;;;;;;;;10.90;99.90;;;;;;5009733;28;20457;-70
2023/10/30 08:17:37;;;;;;;;;;;10.90;99.90;;;;;;5009739;28;19980;-70
2023/10/30 08:20:04;;;;;;;;;;;10.80;99.90;;;;;;5010130;28;19933;-71
2023/10/30 08:22:32;;;;;;;;;;;10.80;99.90;;;;;;5009567;28;19941;-70
2023/10/30 08:24:58;;;;;;;;;;;10.80;99.90;;;;;;5009120;28;19933;-70
2023/10/30 08:27:26;;;;;;;;;;;10.80;99.90;;;;;;5009065;28;19937;-70
2023/10/30 08:29:53;;;;;;;;;;;10.80;99.90;;;;;;5009748;28;20376;-70
2023/10/30 08:32:19;;;;;;;;;;;10.80;99.90;;;;;;5009289;28;19937;-70
2023/10/30 08:34:46;;;;;;;;;;;10.90;99.90;;;;;;5009660;28;20347;-70
2023/10/30 08:37:12;;;;;;;;;;;10.90;99.90;;;;;;5008643;28;19925;-70
2023/10/30 08:39:39;;;;;;;;;;;10.90;99.90;;;;;;5009325;28;20407;-70
2023/10/30 08:42:05;;;;;;;;;;;10.90;99.90;;;;;;5009169;28;19979;-70
2023/10/30 08:44:33;;;;;;;;;;;11.00;99.90;;;;;;5009434;28;20343;-70
2023/10/30 08:47:00;;;;;;;;;;;10.90;99.90;;;;;;5008420;28;19934;-71
2023/10/30 08:49:26;;;;;;;;;;;11.00;99.90;;;;;;5009258;28;19984;-70
2023/10/30 08:51:53;;;;;;;;;;;11.00;99.90;;;;;;5008821;28;19933;-70
2023/10/30 08:54:19;;;;;;;;;;;11.00;99.90;;;;;;5009397;28;19983;-70
2023/10/30 08:56:46;;;;;;;;;;;11.00;99.90;;;;;;5008740;28;20185;-70
2023/10/30 08:59:13;;;;;;;;;;;11.10;99.90;;;;;;5009206;28;19940;-70
2023/10/30 09:01:41;;;;;;;;;;;11.10;99.90;;;;;;5008563;28;19934;-70
2023/10/30 09:04:08;;;;;;;;;;;11.10;99.90;;;;;;5009239;28;19933;-70
2023/10/30 09:06:34;;;;;;;;;;;11.10;99.90;;;;;;5008451;28;19933;-70
2023/10/30 09:09:01;;;;;;;;;;;11.10;99.90;;;;;;5009105;28;20391;-70
2023/10/30 09:11:28;;;;;;;;;;;11.10;99.90;;;;;;5008394;28;19932;-70
2023/10/30 09:13:54;;;;;;;;;;;11.20;99.90;;;;;;5009161;28;19933;-70
2023/10/30 09:16:21;;;;;;;;;;;11.20;99.90;;;;;;5007884;28;19987;-70
2023/10/30 09:18:48;;;;;;;;;;;11.20;99.90;;;;;;5008734;28;19930;-70
2023/10/30 09:21:15;;;;;;;;;;;11.30;99.90;;;;;;5007840;28;20399;-70
2023/10/30 09:23:42;;;;;;;;;;;11.40;99.90;;;;;;5009050;28;19980;-70
2023/10/30 09:26:10;;;;;;;;;;;11.40;99.90;;;;;;5008150;28;19929;-70
2023/10/30 09:28:36;;;;;;;;;;;11.50;99.90;;;;;;5008705;28;20331;-70
2023/10/30 09:31:03;;;;;;;;;;;11.50;99.90;;;;;;5007939;28;19933;-70
2023/10/30 09:33:29;;;;;;;;;;;11.50;99.90;;;;;;5008798;28;19933;-70
2023/10/30 09:35:57;;;;;;;;;;;11.50;99.90;;;;;;5007559;28;19971;-70
2023/10/30 09:38:24;;;;;;;;;;;11.50;99.90;;;;;;5008595;28;19941;-70
2023/10/30 09:40:54;;;;;;;;;;;11.50;99.90;;;;;;5008136;28;19979;-70
2023/10/30 09:43:21;;;;;;;;;;;11.40;99.90;;;;;;5008877;28;19960;-70
2023/10/30 09:45:51;;;;;;;;;;;11.40;99.90;;;;;;5007983;28;20415;-70
2023/10/30 09:48:18;;;;;;;;;;;11.40;99.90;;;;;;5007733;28;19925;-70
2023/10/30 09:50:45;;;;;;;;;;;11.40;99.90;;;;;;5007876;28;19984;-70
2023/10/30 09:53:14;;;;;;;;;;;11.50;99.90;;;;;;5008669;28;19930;-70
2023/10/30 09:55:41;;;;;;;;;;;11.50;99.90;;;;;;5008121;28;20390;-70
2023/10/30 09:58:08;;;;;;;;;;;11.50;99.90;;;;;;5008138;28;19941;-70
2023/10/30 10:00:34;;;;;;;;;;;11.60;99.90;;;;;;5007759;28;19930;-70
2023/10/30 10:03:01;;;;;;;;;;;11.60;99.90;;;;;;5007831;28;19995;-70
2023/10/30 10:05:27;;;;;;;;;;;11.60;99.90;;;;;;5008037;28;19941;-70
2023/10/30 10:07:54;;;;;;;;;;;11.70;99.90;;;;;;5007943;28;19929;-70
2023/10/30 10:10:21;;;;;;;;;;;11.70;99.90;;;;;;5007549;28;20269;-70
2023/10/30 10:12:50;;;;;;;;;;;11.80;99.90;;;;;;5008213;28;19926;-70
2023/10/30 10:15:16;;;;;;;;;;;11.80;99.90;;;;;;5007581;28;19933;-70
2023/10/30 10:17:44;;;;;;;;;;;11.80;99.90;;;;;;5007650;28;19941;-70
2023/10/30 10:20:11;;;;;;;;;;;11.80;99.90;;;;;;5008272;28;19933;-69
2023/10/30 10:22:38;;;;;;;;;;;11.80;99.90;;;;;;5008439;28;20019;-70
2023/10/30 10:25:07;;;;;;;;;;;11.80;99.90;;;;;;5007971;28;19995;-70
2023/10/30 10:27:35;;;;;;;;;;;11.80;99.90;;;;;;5008610;28;20303;-69
2023/10/30 10:30:02;;;;;;;;;;;11.90;99.90;;;;;;5012420;28;19933;-70
2023/10/30 10:32:29;;;;;;;;;;;12.00;99.90;;;;;;5011655;28;19934;-70
2023/10/30 10:34:57;;;;;;;;;;;12.10;99.90;;;;;;5011911;28;19933;-71
2023/10/30 10:37:24;;;;;;;;;;;12.20;99.90;;;;;;5011107;28;19972;-70
2023/10/30 10:39:51;;;;;;;;;;;12.30;99.90;;;;;;5012107;28;19988;-70
2023/10/30 10:42:19;;;;;;;;;;;12.40;99.90;;;;;;5011733;28;19925;-70
2023/10/30 10:44:48;;;;;;;;;;;12.40;99.90;;;;;;5011564;28;19936;-70
2023/10/30 10:47:14;;;;;;;;;;;12.70;99.90;;;;;;5010873;28;19933;-70
2023/10/30 10:49:41;;;;;;;;;;;13.10;99.90;;;;;;5012086;28;19952;-70
2023/10/30 10:52:09;;;;;;;;;;;13.50;99.90;;;;;;5010934;28;20409;-70
2023/10/30 10:54:39;;;;;;;;;;;13.70;99.90;;;;;;5011704;28;19937;-70
2023/10/30 10:57:06;;;;;;;;;;;13.80;99.90;;;;;;5010491;28;19937;-71
2023/10/30 10:59:35;;;;;;;;;;;13.70;99.90;;;;;;5011207;28;20380;-70
2023/10/30 11:02:09;;;;;;;;;;;13.80;99.90;;;;;;5009871;28;19933;-70
2023/10/30 11:04:36;;;;;;;;;;;13.80;99.90;;;;;;5011576;28;19934;-70
2023/10/30 11:07:05;;;;;;;;;;;13.70;99.90;;;;;;5010438;28;19937;-69
2023/10/30 11:09:35;;;;;;;;;;;13.60;99.90;;;;;;5011317;28;19933;-70
2023/10/30 11:12:08;;;;;;;;;;;13.60;99.90;;;;;;5010415;28;19929;-70
2023/10/30 11:14:39;;;;;;;;;;;13.70;99.90;;;;;;5011701;28;19945;-70
2023/10/30 11:17:07;;;;;;;;;;;13.80;99.90;;;;;;5010469;28;19934;-70
2023/10/30 11:19:37;;;;;;;;;;;13.80;99.90;;;;;;5011694;28;19980;-70
2023/10/30 11:22:03;;;;;;;;;;;13.60;99.90;;;;;;5010917;28;20302;-70
2023/10/30 11:24:37;;;;;;;;;;;13.50;99.90;;;;;;5010506;28;19933;-70
2023/10/30 11:27:19;;;;;;;;;;;13.50;99.90;;;;;;5010349;28;19926;-70
2023/10/30 11:29:52;;;;;;;;;;;13.50;99.90;;;;;;5010898;28;20392;-70
2023/10/30 11:32:20;;;;;;;;;;;13.70;99.90;;;;;;5010415;28;19995;-70
2023/10/30 11:34:47;;;;;;;;;;;13.80;99.90;;;;;;5010808;28;19933;-70
2023/10/30 11:37:14;;;;;;;;;;;13.70;99.90;;;;;;5010184;28;19980;-70
2023/10/30 11:39:42;;;;;;;;;;;13.80;99.90;;;;;;5010399;28;19925;-69
2023/10/30 11:42:27;;;;;;;;;;;13.90;99.90;;;;;;5009927;28;19979;-70
2023/10/30 11:45:14;;;;;;;;;;;14.10;99.90;;;;;;5011148;28;20331;-69
2023/10/30 11:47:43;;;;;;;;;;;13.90;99.90;;;;;;5010274;28;19932;-70
2023/10/30 11:50:09;;;;;;;;;;;13.80;99.90;;;;;;5010414;28;20012;-70
2023/10/30 11:52:38;;;;;;;;;;;13.70;99.90;;;;;;5010402;28;20462;-70
2023/10/30 11:55:05;;;;;;;;;;;13.70;99.90;;;;;;5010023;28;20392;-70
2023/10/30 11:57:32;;;;;;;;;;;13.90;99.90;;;;;;5009414;28;19959;-70
2023/10/30 12:00:00;;;;;;;;;;;14.00;99.90;;;;;;5010773;28;19933;-70
2023/10/30 12:02:26;;;;;;;;;;;13.90;99.90;;;;;;5009874;28;19937;-70
2023/10/30 12:04:54;;;;;;;;;;;13.80;99.90;;;;;;5010345;28;19972;-70
2023/10/30 12:07:21;;;;;;;;;;;13.80;99.90;;;;;;5009120;28;20365;-69
2023/10/30 12:09:47;;;;;;;;;;;13.80;99.90;;;;;;5010340;28;19971;-70
2023/10/30 12:12:14;;;;;;;;;;;13.80;99.90;;;;;;5009501;28;19958;-70
2023/10/30 12:14:40;;;;;;;;;;;13.60;99.90;;;;;;5010480;28;19929;-71
2023/10/30 12:17:07;;;;;;;;;;;13.50;99.90;;;;;;5009020;28;20387;-70
2023/10/30 12:19:33;;;;;;;;;;;13.50;99.90;;;;;;5010226;28;19933;-70
2023/10/30 12:22:01;;;;;;;;;;;13.40;99.90;;;;;;5009214;28;19925;-70
2023/10/30 12:24:28;;;;;;;;;;;13.40;99.90;;;;;;5009993;28;19960;-70
2023/10/30 12:26:54;;;;;;;;;;;13.30;99.90;;;;;;5008686;28;19933;-70
2023/10/30 12:29:21;;;;;;;;;;;13.30;99.90;;;;;;5009975;28;19964;-70
2023/10/30 12:31:50;;;;;;;;;;;13.20;99.90;;;;;;5009304;28;19940;-69
2023/10/30 12:34:22;;;;;;;;;;;13.20;99.90;;;;;;5009914;28;19979;-70
2023/10/30 12:36:48;;;;;;;;;;;13.20;99.90;;;;;;5008935;28;19956;-70
2023/10/30 12:39:17;;;;;;;;;;;13.20;99.90;;;;;;5009195;28;19996;-70
2023/10/30 12:41:44;;;;;;;;;;;13.20;99.90;;;;;;5008981;28;19925;-69
2023/10/30 12:44:10;;;;;;;;;;;13.10;99.90;;;;;;5009826;28;19937;-70
2023/10/30 12:46:37;;;;;;;;;;;13.10;99.90;;;;;;5008640;28;20371;-69
2023/10/30 12:49:03;;;;;;;;;;;13.20;99.90;;;;;;5009281;28;19940;-70
2023/10/30 12:51:32;;;;;;;;;;;13.10;99.90;;;;;;5007897;28;19933;-69
2023/10/30 12:53:58;;;;;;;;;;;13.10;99.90;;;;;;5009155;28;20347;-70
2023/10/30 12:56:26;;;;;;;;;;;13.10;99.90;;;;;;5008472;28;20056;-70
2023/10/30 12:58:52;;;;;;;;;;;13.10;99.90;;;;;;5009588;28;19934;-70
2023/10/30 13:01:19;;;;;;;;;;;13.10;99.90;;;;;;5008629;28;19926;-70
2023/10/30 13:03:46;;;;;;;;;;;13.00;99.90;;;;;;5009552;28;19933;-70
2023/10/30 13:06:12;;;;;;;;;;;13.00;99.90;;;;;;5008302;28;19933;-70
2023/10/30 13:08:39;;;;;;;;;;;13.00;99.90;;;;;;5009225;28;20279;-69
2023/10/30 13:11:05;;;;;;;;;;;13.00;99.90;;;;;;5008700;28;19933;-70
2023/10/30 13:13:33;;;;;;;;;;;13.00;99.90;;;;;;5009272;28;19934;-70
2023/10/30 13:16:00;;;;;;;;;;;12.90;99.90;;;;;;5008531;28;19938;-70
2023/10/30 13:18:27;;;;;;;;;;;12.90;99.90;;;;;;5008726;28;19941;-69
2023/10/30 13:20:53;;;;;;;;;;;13.00;99.90;;;;;;5007653;28;19980;-70
2023/10/30 13:23:21;;;;;;;;;;;13.00;99.90;;;;;;5008801;28;19933;-69
2023/10/30 13:25:48;;;;;;;;;;;13.00;99.90;;;;;;5007617;28;19933;-69
2023/10/30 13:28:17;;;;;;;;;;;13.00;99.90;;;;;;5007161;28;19925;-70
2023/10/30 13:30:44;;;;;;;;;;;13.00;99.90;;;;;;5008383;28;19929;-69
2023/10/30 13:33:11;;;;;;;;;;;13.00;99.90;;;;;;5008949;28;20334;-69
2023/10/30 13:35:37;;;;;;;;;;;13.10;99.90;;;;;;5007765;28;19930;-69
2023/10/30 13:38:04;;;;;;;;;;;13.00;99.90;;;;;;5008518;28;20277;-69
2023/10/30 13:40:30;;;;;;;;;;;13.00;99.90;;;;;;5008095;28;19991;-69
2023/10/30 13:43:00;;;;;;;;;;;13.00;99.90;;;;;;5008853;28;19933;-70
2023/10/30 13:45:27;;;;;;;;;;;13.00;99.90;;;;;;5007799;28;20396;-69
2023/10/30 13:47:55;;;;;;;;;;;13.00;99.90;;;;;;5008196;28;19937;-69
2023/10/30 13:50:21;;;;;;;;;;;13.00;99.90;;;;;;5007925;28;19945;-70
2023/10/30 13:52:48;;;;;;;;;;;13.00;99.90;;;;;;5008798;28;19933;-69
2023/10/30 13:55:14;;;;;;;;;;;13.00;99.90;;;;;;5008253;28;19937;-70
2023/10/30 13:57:41;;;;;;;;;;;13.00;99.90;;;;;;5008253;28;20295;-69
2023/10/30 14:00:09;;;;;;;;;;;13.00;99.90;;;;;;5008309;28;19975;-69
2023/10/30 14:02:36;;;;;;;;;;;13.00;99.90;;;;;;5008247;28;19977;-69
2023/10/30 14:05:05;;;;;;;;;;;13.00;99.90;;;;;;5015139;28;19937;-70
2023/10/30 14:07:32;;;;;;;;;;;13.00;99.90;;;;;;5014074;28;19925;-69
2023/10/30 14:09:58;;;;;;;;;;;13.00;99.90;;;;;;5015141;28;19933;-70
2023/10/30 14:12:27;;;;;;;;;;;13.10;99.90;;;;;;5014316;28;20421;-69
2023/10/30 14:14:53;;;;;;;;;;;13.10;99.90;;;;;;5014765;28;19926;-69
2023/10/30 14:17:20;;;;;;;;;;;13.10;99.90;;;;;;5013694;28;19933;-69